createdAt,value
2019-03-26T00:01:17.396Z,29.55
2019-03-26T00:03:48.238Z,27.40
2019-03-26T00:06:22.216Z,26.57
2019-03-26T00:09:04.881Z,24.82
2019-03-26T00:11:36.365Z,29.32
2019-03-26T00:14:07.555Z,30.12
2019-03-26T00:16:38.521Z,32.38
2019-03-26T00:19:10.948Z,33.80
2019-03-26T00:21:41.940Z,32.40
2019-03-26T00:24:12.873Z,27.82
2019-03-26T00:26:43.906Z,28.02
2019-03-26T00:29:14.806Z,27.00
2019-03-26T00:31:45.742Z,25.25
2019-03-26T00:34:19.586Z,29.70
2019-03-26T00:36:49.553Z,26.00
2019-03-26T00:39:24.129Z,28.35
2019-03-26T00:41:55.045Z,26.80
2019-03-26T00:44:26.504Z,25.00
2019-03-26T00:47:01.179Z,28.55
2019-03-26T00:49:37.088Z,27.52
2019-03-26T00:52:07.998Z,26.40
2019-03-26T00:54:39.120Z,26.65
2019-03-26T00:57:10.862Z,25.95
2019-03-26T00:59:43.803Z,28.92
2019-03-26T01:02:14.485Z,29.52
2019-03-26T01:04:45.292Z,27.32
2019-03-26T01:07:16.464Z,28.98
2019-03-26T01:09:47.469Z,27.42
2019-03-26T01:12:21.385Z,27.25
2019-03-26T01:14:53.419Z,27.10
2019-03-26T01:17:25.466Z,27.17
2019-03-26T01:19:58.611Z,27.73
2019-03-26T01:22:29.817Z,27.73
2019-03-26T01:25:00.987Z,29.18
2019-03-26T01:27:34.573Z,27.17
2019-03-26T01:30:07.256Z,29.92
2019-03-26T01:32:38.596Z,32.83
2019-03-26T01:35:10.094Z,32.20
2019-03-26T01:37:41.209Z,32.05
2019-03-26T01:40:12.775Z,32.80
2019-03-26T01:42:46.736Z,32.20
2019-03-26T01:45:17.757Z,33.63
2019-03-26T01:47:48.570Z,33.78
2019-03-26T01:50:22.446Z,33.02
2019-03-26T01:52:53.180Z,32.83
2019-03-26T01:55:24.405Z,33.85
2019-03-26T01:57:55.445Z,33.73
2019-03-26T02:00:26.391Z,33.58
2019-03-26T02:02:57.287Z,32.85
2019-03-26T02:05:31.455Z,30.97
2019-03-26T02:08:02.557Z,29.75
2019-03-26T02:10:40.035Z,31.00
2019-03-26T02:13:13.207Z,33.08
2019-03-26T02:15:44.443Z,32.67
2019-03-26T02:18:15.511Z,32.08
2019-03-26T02:21:07.969Z,32.48
2019-03-26T02:23:22.471Z,29.60
2019-03-26T02:25:53.680Z,30.82
2019-03-26T02:28:25.680Z,29.20
2019-03-26T02:30:57.030Z,32.35
2019-03-26T02:33:27.994Z,30.50
2019-03-26T02:36:04.849Z,30.50
2019-03-26T02:38:36.392Z,29.70
2019-03-26T02:41:07.463Z,29.52
2019-03-26T02:43:39.596Z,28.25
2019-03-26T02:46:10.607Z,27.02
2019-03-26T02:48:43.081Z,27.40
2019-03-26T02:51:14.292Z,27.93
2019-03-26T02:53:45.285Z,25.88
2019-03-26T02:56:19.213Z,26.48
2019-03-26T02:58:58.676Z,23.35
2019-03-26T03:01:29.808Z,27.42
2019-03-26T03:04:03.898Z,24.02
2019-03-26T03:06:36.128Z,27.52
2019-03-26T03:09:08.504Z,28.45
2019-03-26T03:11:39.741Z,26.62
2019-03-26T03:14:12.032Z,31.37
2019-03-26T03:16:43.497Z,31.48
2019-03-26T03:19:16.175Z,32.13
2019-03-26T03:21:49.735Z,34.08
2019-03-26T03:24:20.804Z,33.48
2019-03-26T03:26:53.427Z,30.05
2019-03-26T03:29:24.447Z,32.78
2019-03-26T03:31:55.627Z,24.77
2019-03-26T03:34:26.597Z,21.33
2019-03-26T03:36:57.694Z,20.50
2019-03-26T03:39:28.922Z,22.25
2019-03-26T03:42:04.012Z,21.25
2019-03-26T03:50:56.733Z,20.57
2019-03-26T03:53:29.714Z,21.65
2019-03-26T03:56:02.915Z,20.95
2019-03-26T03:58:35.186Z,22.60
2019-03-26T04:01:06.579Z,23.10
2019-03-26T04:03:40.495Z,21.55
2019-03-26T04:06:11.508Z,21.80
2019-03-26T04:08:43.433Z,21.73
2019-03-26T04:11:15.361Z,20.80
2019-03-26T04:13:46.363Z,21.12
2019-03-26T04:16:21.486Z,22.10
2019-03-26T04:18:52.530Z,21.45
2019-03-26T04:21:23.977Z,22.58
2019-03-26T04:23:56.857Z,21.95
2019-03-26T04:26:28.108Z,22.32
2019-03-26T04:29:00.601Z,23.20
2019-03-26T04:31:32.868Z,23.42
2019-03-26T04:34:04.475Z,22.45
2019-03-26T04:36:38.149Z,23.75
2019-03-26T04:39:10.574Z,22.75
2019-03-26T04:41:41.408Z,24.70
2019-03-26T04:44:13.955Z,22.73
2019-03-26T04:46:48.813Z,23.27
2019-03-26T04:49:19.898Z,23.45
2019-03-26T04:51:51.041Z,21.80
2019-03-26T04:54:22.169Z,22.20
2019-03-26T04:56:58.164Z,20.85
2019-03-26T04:59:29.069Z,21.95
2019-03-26T05:02:07.637Z,21.70
2019-03-26T05:04:42.143Z,23.20
2019-03-26T05:07:13.076Z,21.02
2019-03-26T05:09:44.081Z,21.80
2019-03-26T05:12:16.376Z,20.55
2019-03-26T05:14:47.797Z,20.90
2019-03-26T05:17:19.081Z,21.23
2019-03-26T05:19:50.884Z,19.87
2019-03-26T05:22:24.453Z,20.15
2019-03-26T05:24:55.714Z,20.30
2019-03-26T05:27:28.484Z,19.55
2019-03-26T05:29:59.651Z,18.80
2019-03-26T05:32:38.807Z,19.87
2019-03-26T05:35:11.755Z,19.60
2019-03-26T05:37:43.666Z,18.60
2019-03-26T05:40:16.172Z,18.98
2019-03-26T05:42:47.436Z,20.52
2019-03-26T05:45:19.418Z,18.52
2019-03-26T05:47:54.200Z,19.12
2019-03-26T05:50:28.050Z,17.77
2019-03-26T05:53:01.475Z,17.50
2019-03-26T05:55:32.854Z,18.25
2019-03-26T05:58:04.274Z,18.48
2019-03-26T06:00:35.604Z,16.85
2019-03-26T06:03:09.704Z,18.02
2019-03-26T06:05:43.137Z,17.45
2019-03-26T06:08:16.257Z,17.67
2019-03-26T06:10:47.802Z,18.05
2019-03-26T06:13:19.805Z,19.70
2019-03-26T06:15:51.517Z,18.42
2019-03-26T06:18:27.226Z,19.17
2019-03-26T06:20:58.473Z,20.65
2019-03-26T06:23:29.724Z,19.73
2019-03-26T06:26:04.218Z,18.90
2019-03-26T06:28:35.752Z,17.82
2019-03-26T06:31:10.317Z,17.37
2019-03-26T06:33:42.774Z,17.02
2019-03-26T06:36:21.811Z,18.17
2019-03-26T06:38:53.566Z,18.50
2019-03-26T06:41:28.515Z,19.52
2019-03-26T06:44:00.110Z,18.70
2019-03-26T06:46:31.165Z,19.82
2019-03-26T06:49:02.131Z,18.80
2019-03-26T06:51:33.157Z,18.50
2019-03-26T06:54:07.338Z,19.23
2019-03-26T06:56:38.625Z,17.90
2019-03-26T06:59:12.442Z,16.80
2019-03-26T07:01:43.798Z,18.35
2019-03-26T07:04:14.952Z,18.23
2019-03-26T07:06:47.029Z,17.95
2019-03-26T07:09:18.249Z,18.32
2019-03-26T07:11:49.119Z,17.25
2019-03-26T07:14:21.344Z,17.27
2019-03-26T07:16:52.527Z,18.37
2019-03-26T07:19:24.564Z,18.23
2019-03-26T07:21:55.776Z,18.00
2019-03-26T07:24:29.742Z,19.85
2019-03-26T07:27:01.648Z,17.45
2019-03-26T07:29:32.719Z,18.60
2019-03-26T07:32:04.020Z,18.02
2019-03-26T07:34:35.464Z,17.90
2019-03-26T07:37:07.828Z,17.20
2019-03-26T07:39:46.898Z,18.75
2019-03-26T07:42:18.198Z,16.12
2019-03-26T07:44:49.152Z,16.48
2019-03-26T07:47:20.193Z,17.95
2019-03-26T07:49:51.485Z,17.52
2019-03-26T07:52:22.848Z,17.67
2019-03-26T07:54:57.198Z,18.17
2019-03-26T07:57:28.764Z,17.48
2019-03-26T08:00:02.471Z,18.67
2019-03-26T08:02:33.677Z,16.67
2019-03-26T08:05:09.120Z,17.85
2019-03-26T08:07:40.510Z,18.12
2019-03-26T08:10:13.721Z,19.12
2019-03-26T08:12:44.920Z,18.77
2019-03-26T08:15:15.916Z,17.65
2019-03-26T08:17:47.128Z,16.82
2019-03-26T08:20:18.801Z,17.85
2019-03-26T08:22:50.881Z,18.65
2019-03-26T08:25:22.222Z,18.60
2019-03-26T08:27:53.366Z,18.95
2019-03-26T08:30:24.613Z,19.73
2019-03-26T08:32:55.682Z,18.35
2019-03-26T08:35:26.814Z,18.15
2019-03-26T08:38:11.368Z,17.50
2019-03-26T08:40:31.640Z,17.57
2019-03-26T08:43:02.652Z,17.85
2019-03-26T08:45:33.689Z,18.48
2019-03-26T08:48:04.973Z,17.82
2019-03-26T08:50:36.974Z,17.07
2019-03-26T08:53:07.998Z,17.10
2019-03-26T08:55:39.217Z,18.55
2019-03-26T08:58:10.203Z,18.98
2019-03-26T09:00:43.268Z,18.62
2019-03-26T09:03:14.337Z,18.98
2019-03-26T09:05:45.682Z,18.67
2019-03-26T09:08:25.370Z,17.77
2019-03-26T09:10:53.157Z,17.77
2019-03-26T09:13:24.206Z,18.00
2019-03-26T09:15:55.617Z,18.77
2019-03-26T09:18:31.651Z,17.07
2019-03-26T09:21:01.756Z,16.57
2019-03-26T09:23:32.663Z,17.02
2019-03-26T09:26:03.890Z,17.10
2019-03-26T09:28:35.011Z,16.17
2019-03-26T09:31:09.009Z,17.35
2019-03-26T09:33:39.942Z,16.95
2019-03-26T09:36:11.128Z,17.15
2019-03-26T09:38:42.490Z,16.55
2019-03-26T09:41:14.052Z,17.32
2019-03-26T09:43:50.428Z,16.25
2019-03-26T09:46:25.658Z,16.93
2019-03-26T09:48:57.062Z,16.87
2019-03-26T09:51:29.148Z,16.10
2019-03-26T09:54:01.151Z,17.17
2019-03-26T09:56:33.727Z,16.65
2019-03-26T09:59:04.878Z,16.65
2019-03-26T10:01:54.610Z,17.98
2019-03-26T10:04:26.238Z,17.98
2019-03-26T10:07:00.811Z,18.23
2019-03-26T10:09:31.753Z,18.10
2019-03-26T10:12:03.033Z,16.87
2019-03-26T10:14:34.380Z,17.40
2019-03-26T10:17:07.402Z,16.65
2019-03-26T10:19:38.867Z,17.50
2019-03-26T10:22:12.101Z,17.62
2019-03-26T10:24:43.284Z,16.25
2019-03-26T10:27:14.362Z,17.20
2019-03-26T10:33:26.862Z,16.60
2019-03-26T10:35:57.768Z,16.27
2019-03-26T10:38:28.631Z,17.25
2019-03-26T10:41:13.416Z,16.40
2019-03-26T10:43:44.533Z,16.67
2019-03-26T10:46:16.838Z,16.95
2019-03-26T10:48:49.118Z,17.35
2019-03-26T10:51:20.443Z,18.77
2019-03-26T10:53:52.593Z,16.73
2019-03-26T10:56:23.787Z,16.70
2019-03-26T10:58:54.830Z,18.52
2019-03-26T11:01:25.943Z,19.07
2019-03-26T11:03:56.825Z,18.75
2019-03-26T11:06:27.971Z,19.52
2019-03-26T11:08:58.715Z,20.12
2019-03-26T11:11:30.008Z,19.42
2019-03-26T11:14:00.792Z,19.30
2019-03-26T11:16:31.967Z,19.27
2019-03-26T11:19:03.015Z,20.27
2019-03-26T11:21:34.170Z,18.95
2019-03-26T11:24:05.276Z,20.48
2019-03-26T11:26:36.440Z,20.50
2019-03-26T11:29:07.236Z,20.50
2019-03-26T11:31:39.602Z,22.10
2019-03-26T11:34:11.571Z,21.42
2019-03-26T11:36:42.410Z,19.80
2019-03-26T11:39:13.465Z,19.82
2019-03-26T11:41:45.193Z,20.85
2019-03-26T11:44:16.337Z,20.27
2019-03-26T11:46:47.140Z,19.98
2019-03-26T11:49:18.391Z,20.30
2019-03-26T11:51:49.365Z,20.25
2019-03-26T11:54:20.613Z,19.80
2019-03-26T11:56:51.886Z,19.77
2019-03-26T11:59:22.850Z,19.75
2019-03-26T12:01:53.823Z,20.35
2019-03-26T12:04:25.108Z,20.00
2019-03-26T12:06:58.524Z,20.15
2019-03-26T12:09:29.670Z,20.80
2019-03-26T12:12:00.619Z,20.30
2019-03-26T12:14:34.638Z,20.05
2019-03-26T12:17:05.899Z,20.62
2019-03-26T12:19:37.968Z,21.23
2019-03-26T12:22:09.795Z,20.30
2019-03-26T12:24:40.500Z,20.52
2019-03-26T12:27:11.262Z,20.77
2019-03-26T12:29:42.102Z,19.17
2019-03-26T12:32:12.970Z,21.20
2019-03-26T12:34:44.152Z,20.77
2019-03-26T12:37:15.188Z,21.20
2019-03-26T12:39:58.993Z,22.35
2019-03-26T12:42:20.033Z,22.00
2019-03-26T12:44:53.115Z,21.90
2019-03-26T12:47:24.291Z,24.35
2019-03-26T12:49:55.230Z,25.30
2019-03-26T12:52:27.135Z,23.02
2019-03-26T12:54:58.837Z,25.23
2019-03-26T12:57:31.245Z,25.02
2019-03-26T13:00:02.947Z,24.98
2019-03-26T13:02:35.939Z,24.67
2019-03-26T13:05:08.166Z,24.67
2019-03-26T13:07:39.283Z,24.87
2019-03-26T13:10:13.998Z,26.40
2019-03-26T13:12:43.418Z,25.08
2019-03-26T13:15:14.531Z,25.68
2019-03-26T13:17:45.395Z,24.98
2019-03-26T13:20:16.562Z,24.20
2019-03-26T13:22:47.986Z,24.85
2019-03-26T13:25:19.050Z,23.87
2019-03-26T13:27:49.966Z,24.95
2019-03-26T13:30:21.334Z,25.27
2019-03-26T13:32:53.299Z,25.08
2019-03-26T13:35:25.228Z,23.75
2019-03-26T13:37:56.401Z,26.70
2019-03-26T13:40:27.994Z,24.20
2019-03-26T13:42:59.162Z,24.98
2019-03-26T13:45:32.668Z,24.63
2019-03-26T13:48:02.582Z,22.75
2019-03-26T13:50:33.600Z,23.35
2019-03-26T13:53:05.688Z,24.92
2019-03-26T13:55:37.472Z,25.27
2019-03-26T13:58:08.577Z,25.48
2019-03-26T14:00:40.964Z,24.85
2019-03-26T14:03:12.029Z,24.98
2019-03-26T14:05:42.953Z,24.85
2019-03-26T14:08:14.200Z,24.45
2019-03-26T14:10:45.143Z,25.75
2019-03-26T14:13:16.166Z,26.33
2019-03-26T14:15:47.292Z,26.17
2019-03-26T14:18:18.290Z,26.17
2019-03-26T14:20:49.533Z,26.50
2019-03-26T14:23:20.739Z,26.10
2019-03-26T14:25:51.739Z,26.45
2019-03-26T14:28:23.202Z,26.70
2019-03-26T14:30:54.067Z,26.15
2019-03-26T14:33:25.251Z,29.65
2019-03-26T14:35:56.313Z,29.52
2019-03-26T14:38:27.426Z,32.08
2019-03-26T14:40:58.332Z,31.52
2019-03-26T14:43:29.512Z,30.77
2019-03-26T14:46:00.468Z,31.50
2019-03-26T14:48:31.286Z,30.90
2019-03-26T14:51:02.564Z,30.55
2019-03-26T14:53:33.543Z,30.37
2019-03-26T14:56:04.684Z,29.63
2019-03-26T14:58:35.711Z,28.10
2019-03-26T15:01:06.698Z,28.32
2019-03-26T15:03:37.906Z,30.17
2019-03-26T15:06:08.533Z,28.17
2019-03-26T15:08:40.475Z,28.05
2019-03-26T15:11:11.384Z,29.72
2019-03-26T15:13:43.706Z,27.62
2019-03-26T15:16:15.032Z,27.27
2019-03-26T15:18:46.021Z,27.40
2019-03-26T15:21:16.965Z,27.58
2019-03-26T15:23:48.370Z,29.25
2019-03-26T15:26:19.410Z,28.70
2019-03-26T15:28:50.343Z,29.70
2019-03-26T15:31:21.518Z,31.68
2019-03-26T15:33:52.472Z,32.67
2019-03-26T15:36:23.638Z,32.83
2019-03-26T15:38:55.039Z,34.55
2019-03-26T15:41:26.633Z,32.98
2019-03-26T15:43:57.357Z,36.05
2019-03-26T15:46:29.531Z,35.05
2019-03-26T15:49:00.525Z,35.38
2019-03-26T15:51:31.452Z,33.23
2019-03-26T15:54:02.531Z,34.27
2019-03-26T15:56:33.242Z,34.38
2019-03-26T15:59:04.116Z,34.65
2019-03-26T16:01:35.183Z,35.08
2019-03-26T16:04:06.159Z,32.93
2019-03-26T16:06:37.331Z,30.77
2019-03-26T16:09:10.281Z,31.55
2019-03-26T16:11:41.341Z,30.00
2019-03-26T16:14:12.282Z,31.40
2019-03-26T16:16:43.279Z,35.78
2019-03-26T16:19:14.294Z,35.58
2019-03-26T16:21:45.431Z,37.38
2019-03-26T16:24:16.758Z,38.35
2019-03-26T16:26:47.862Z,37.63
2019-03-26T16:29:19.007Z,37.67
2019-03-26T16:31:50.093Z,36.65
2019-03-26T16:34:21.125Z,37.03
2019-03-26T16:36:59.297Z,35.15
2019-03-26T16:39:24.490Z,36.00
2019-03-26T16:41:55.443Z,34.27
2019-03-26T16:44:26.416Z,33.53
2019-03-26T16:46:57.490Z,31.87
2019-03-26T16:49:28.465Z,30.75
2019-03-26T16:51:59.334Z,31.05
2019-03-26T16:54:30.848Z,29.75
2019-03-26T16:57:01.831Z,29.02
2019-03-26T16:59:32.820Z,27.80
2019-03-26T17:02:03.906Z,28.12
2019-03-26T17:04:34.840Z,28.05
2019-03-26T17:07:06.348Z,29.05
2019-03-26T17:09:37.200Z,28.12
2019-03-26T17:12:07.983Z,25.52
2019-03-26T17:14:39.070Z,28.62
2019-03-26T17:17:09.993Z,28.42
2019-03-26T17:19:41.099Z,27.45
2019-03-26T17:22:12.261Z,29.30
2019-03-26T17:24:43.332Z,29.50
2019-03-26T17:27:14.233Z,30.12
2019-03-26T17:29:45.187Z,29.15
2019-03-26T17:32:16.289Z,28.25
2019-03-26T17:34:47.238Z,28.05
2019-03-26T17:37:18.229Z,27.37
2019-03-26T17:39:49.392Z,29.40
2019-03-26T17:42:20.276Z,28.55
2019-03-26T17:44:51.412Z,27.37
2019-03-26T17:47:22.427Z,27.37
2019-03-26T17:49:56.813Z,26.10
2019-03-26T17:52:27.805Z,28.10
2019-03-26T17:54:58.733Z,28.83
2019-03-26T17:57:29.648Z,27.40
2019-03-26T18:00:00.649Z,28.45
2019-03-26T18:02:31.807Z,26.25
2019-03-26T18:05:03.051Z,27.40
2019-03-26T18:07:34.224Z,26.80
2019-03-26T18:10:06.891Z,27.58
2019-03-26T18:12:37.840Z,25.92
2019-03-26T18:15:08.905Z,26.80
2019-03-26T18:17:40.060Z,26.60
2019-03-26T18:20:11.083Z,28.52
2019-03-26T18:22:41.899Z,26.02
2019-03-26T18:25:12.937Z,26.45
2019-03-26T18:27:43.848Z,31.62
2019-03-26T18:30:15.431Z,31.10
2019-03-26T18:32:46.348Z,25.12
2019-03-26T18:35:17.175Z,26.35
2019-03-26T18:37:49.324Z,26.70
2019-03-26T18:40:20.331Z,25.08
2019-03-26T18:42:51.569Z,25.15
2019-03-26T18:45:22.431Z,25.48
2019-03-26T18:47:53.497Z,25.95
2019-03-26T18:50:24.502Z,26.93
2019-03-26T18:52:55.469Z,26.73
2019-03-26T18:55:26.543Z,27.02
2019-03-26T18:57:57.675Z,28.27
2019-03-26T19:00:31.152Z,26.93
2019-03-26T19:03:02.425Z,27.58
2019-03-26T19:05:33.581Z,27.90
2019-03-26T19:08:04.467Z,26.27
2019-03-26T19:10:37.484Z,25.97
2019-03-26T19:13:19.239Z,24.45
2019-03-26T19:15:41.618Z,26.02
2019-03-26T19:18:12.604Z,24.52
2019-03-26T19:20:43.563Z,24.50
2019-03-26T19:23:14.874Z,24.70
2019-03-26T19:25:45.854Z,25.40
2019-03-26T19:28:16.922Z,24.95
2019-03-26T19:30:50.891Z,26.45
2019-03-26T19:33:22.024Z,23.60
2019-03-26T19:35:53.250Z,24.65
2019-03-26T19:38:24.326Z,24.57
2019-03-26T19:40:55.331Z,25.55
2019-03-26T19:43:26.272Z,24.92
2019-03-26T19:45:57.150Z,25.97
2019-03-26T19:48:28.174Z,26.97
2019-03-26T19:50:59.222Z,26.33
2019-03-26T19:53:30.163Z,24.30
2019-03-26T19:56:01.314Z,23.27
2019-03-26T19:58:32.359Z,24.43
2019-03-26T20:01:03.228Z,25.95
2019-03-26T20:03:34.259Z,25.35
2019-03-26T20:06:13.526Z,23.35
2019-03-26T20:08:37.212Z,24.50
2019-03-26T20:11:08.402Z,25.57
2019-03-26T20:13:39.250Z,23.90
2019-03-26T20:16:10.291Z,23.80
2019-03-26T20:18:41.180Z,24.72
2019-03-26T20:21:12.073Z,25.77
2019-03-26T20:23:43.295Z,24.40
2019-03-26T20:26:14.375Z,27.15
2019-03-26T20:28:45.205Z,28.23
2019-03-26T20:31:16.289Z,28.85
2019-03-26T20:33:47.432Z,27.50
2019-03-26T20:36:18.663Z,26.62
2019-03-26T20:38:51.415Z,27.13
2019-03-26T20:41:21.982Z,28.17
2019-03-26T20:43:53.049Z,27.37
2019-03-26T20:46:24.050Z,27.62
2019-03-26T20:48:55.072Z,28.35
2019-03-26T20:51:25.912Z,26.50
2019-03-26T20:53:56.953Z,28.77
2019-03-26T20:56:28.489Z,28.30
2019-03-26T20:58:59.795Z,27.85
2019-03-26T21:01:34.207Z,28.60
2019-03-26T21:04:05.242Z,27.60
2019-03-26T21:06:36.239Z,27.10
2019-03-26T21:09:08.566Z,27.73
2019-03-26T21:11:39.422Z,30.52
2019-03-26T21:14:10.132Z,28.42
2019-03-26T21:16:41.343Z,28.80
2019-03-26T21:19:12.118Z,28.07
2019-03-26T21:21:42.813Z,28.23
2019-03-26T21:24:13.830Z,28.95
2019-03-26T21:26:45.003Z,28.67
2019-03-26T21:29:16.126Z,30.15
2019-03-26T21:31:50.181Z,27.22
2019-03-26T21:34:30.448Z,28.38
2019-03-26T21:36:53.971Z,25.32
2019-03-26T21:39:25.030Z,27.27
2019-03-26T21:41:56.880Z,27.73
2019-03-26T21:44:28.075Z,27.95
2019-03-26T21:46:58.951Z,28.55
2019-03-26T21:49:30.017Z,26.73
2019-03-26T21:52:01.152Z,28.85
2019-03-26T21:54:32.367Z,28.30
2019-03-26T21:57:03.370Z,26.42
2019-03-26T21:59:34.420Z,28.00
2019-03-26T22:02:08.665Z,27.48
2019-03-26T22:04:39.572Z,26.93
2019-03-26T22:07:10.658Z,28.80
2019-03-26T22:09:41.828Z,28.65
2019-03-26T22:12:12.776Z,28.10
2019-03-26T22:14:43.770Z,29.67
2019-03-26T22:17:14.847Z,27.48
2019-03-26T22:19:45.758Z,26.25
2019-03-26T22:22:18.261Z,25.97
2019-03-26T22:24:49.060Z,28.20
2019-03-26T22:27:20.046Z,28.40
2019-03-26T22:29:50.946Z,28.00
2019-03-26T22:32:22.203Z,29.02
2019-03-26T22:34:53.031Z,28.55
2019-03-26T22:37:24.106Z,29.12
2019-03-26T22:39:55.064Z,28.35
2019-03-26T22:42:26.412Z,28.83
2019-03-26T22:44:57.361Z,31.70
2019-03-26T22:47:28.633Z,30.25
2019-03-26T22:49:59.464Z,28.75
2019-03-26T22:52:30.742Z,30.85
2019-03-26T22:55:01.845Z,31.90
2019-03-26T22:57:32.911Z,31.10
2019-03-26T23:00:04.040Z,31.12
2019-03-26T23:02:35.062Z,33.65
2019-03-26T23:05:07.992Z,33.40
2019-03-26T23:07:39.029Z,33.42
2019-03-26T23:10:10.791Z,35.55
2019-03-26T23:12:42.116Z,33.78
2019-03-26T23:15:15.817Z,35.88
2019-03-26T23:17:52.709Z,34.55
2019-03-26T23:20:23.752Z,35.80
2019-03-26T23:22:54.713Z,37.28
2019-03-26T23:25:25.711Z,37.05
2019-03-26T23:27:56.960Z,40.78
2019-03-26T23:30:27.786Z,39.67
2019-03-26T23:32:58.672Z,39.33
2019-03-26T23:35:31.145Z,40.17
2019-03-26T23:38:02.099Z,38.92
2019-03-26T23:40:34.181Z,40.25
2019-03-26T23:43:05.243Z,41.18
2019-03-26T23:45:36.318Z,40.78
2019-03-26T23:48:07.248Z,40.50
2019-03-26T23:50:38.377Z,42.17
2019-03-26T23:53:09.470Z,43.38
2019-03-26T23:55:40.590Z,43.73
2019-03-26T23:58:11.647Z,43.13
